LFTW/FNI METAR and TAF weather

Enter ICAO airport designator
Station Type Date Time Source
LFTW METAR 2018/12/10 01:30 UTC NOAA

LFTW 100130Z AUTO 32006KT CAVOK 09/03 Q1025


Station Type Date Time Source
LFTW Decoded METAR 2018/12/10 01:30 UTC NOAA

Nimes / Garons, France (LFTW) 43-45N 004-25E 96M
Dec 09, 2018 - 08:30 PM EST / 2018.12.10 0130 UTC
Wind: from the NW (320 degrees) at 7 MPH (6 KT):0
Visibility: greater than 7 mile(s):0
Temperature: 48 F (9 C)
Dew Point: 37 F (3 C)
Relative Humidity: 66%
Pressure (altimeter): 30.27 in. Hg (1025 hPa)
ob: LFTW 100130Z AUTO 32006KT CAVOK 09/03 Q1025
cycle: 1

Station Type Date Time Source
LFTW TAF 2018/12/09 20:10 UTC NOAA

TAF LFTW 092005Z 0920/1015 CNL


Example: see airport list